createdAt,value
2022-08-26T00:00:27.214Z,19.03
2022-08-26T00:01:29.689Z,19.05
2022-08-26T00:02:27.210Z,19.06
2022-08-26T00:03:27.169Z,19.08
2022-08-26T00:04:27.174Z,19.08
2022-08-26T00:05:27.135Z,19.08
2022-08-26T00:06:27.099Z,19.08
2022-08-26T00:07:27.158Z,19.07
2022-08-26T00:08:27.141Z,19.06
2022-08-26T00:09:27.072Z,19.06
2022-08-26T00:10:27.094Z,19.08
2022-08-26T00:11:27.273Z,19.11
2022-08-26T00:12:35.946Z,19.15
2022-08-26T00:13:27.049Z,19.18
2022-08-26T00:14:31.224Z,19.19
2022-08-26T00:15:27.007Z,19.20
2022-08-26T00:16:27.022Z,19.20
2022-08-26T00:17:27.012Z,19.20
2022-08-26T00:18:26.948Z,19.20
2022-08-26T00:19:26.959Z,19.19
2022-08-26T00:20:26.941Z,19.19
2022-08-26T00:21:26.944Z,19.17
2022-08-26T00:22:26.900Z,19.16
2022-08-26T00:23:26.896Z,19.14
2022-08-26T00:24:26.914Z,19.11
2022-08-26T00:25:26.838Z,19.09
2022-08-26T00:26:28.487Z,19.06
2022-08-26T00:27:26.829Z,19.04
2022-08-26T00:28:26.840Z,19.03
2022-08-26T00:29:26.787Z,19.02
2022-08-26T00:30:26.805Z,19.01
2022-08-26T00:31:26.844Z,19.01
2022-08-26T00:32:26.771Z,19.01
2022-08-26T00:33:26.751Z,19.02
2022-08-26T00:34:26.726Z,19.02
2022-08-26T00:35:27.980Z,19.02
2022-08-26T00:36:29.653Z,19.02
2022-08-26T00:37:26.680Z,19.03
2022-08-26T00:38:26.684Z,19.03
2022-08-26T00:39:26.664Z,19.04
2022-08-26T00:40:26.703Z,19.04
2022-08-26T00:41:26.672Z,19.04
2022-08-26T00:42:26.704Z,19.05
2022-08-26T00:43:26.642Z,19.05
2022-08-26T00:44:26.638Z,19.04
2022-08-26T00:45:26.620Z,19.03
2022-08-26T00:46:26.583Z,19.01
2022-08-26T00:47:26.632Z,19.01
2022-08-26T00:48:26.587Z,19.00
2022-08-26T00:49:26.557Z,19.00
2022-08-26T00:50:26.542Z,19.00
2022-08-26T00:51:29.665Z,19.00
2022-08-26T00:52:26.505Z,19.00
2022-08-26T00:53:27.962Z,19.00
2022-08-26T00:54:26.787Z,19.00
2022-08-26T00:55:34.472Z,18.99
2022-08-26T00:56:26.468Z,18.98
2022-08-26T00:57:26.435Z,18.97
2022-08-26T00:58:26.417Z,18.96
2022-08-26T00:59:26.391Z,18.96
2022-08-26T01:00:26.376Z,18.98
2022-08-26T01:01:26.384Z,19.00
2022-08-26T01:02:26.412Z,19.04
2022-08-26T01:03:26.361Z,19.10
2022-08-26T01:04:26.313Z,19.15
2022-08-26T01:05:26.323Z,19.20
2022-08-26T01:06:26.280Z,19.26
2022-08-26T01:07:26.330Z,19.30
2022-08-26T01:08:26.260Z,19.33
2022-08-26T01:09:26.282Z,19.37
2022-08-26T01:10:26.246Z,19.40
2022-08-26T01:11:26.245Z,19.43
2022-08-26T01:12:26.239Z,19.46
2022-08-26T01:13:26.231Z,19.48
2022-08-26T01:14:26.183Z,19.51
2022-08-26T01:15:26.191Z,19.52
2022-08-26T01:16:26.256Z,19.52
2022-08-26T01:17:26.146Z,19.50
2022-08-26T01:18:26.169Z,19.48
2022-08-26T01:19:26.111Z,19.46
2022-08-26T01:20:26.113Z,19.44
2022-08-26T01:21:26.135Z,19.42
2022-08-26T01:22:28.123Z,19.40
2022-08-26T01:23:26.081Z,19.38
2022-08-26T01:24:26.046Z,19.35
2022-08-26T01:25:26.093Z,19.33
2022-08-26T01:26:26.055Z,19.32
2022-08-26T01:27:26.061Z,19.32
2022-08-26T01:28:26.040Z,19.31
2022-08-26T01:29:26.046Z,19.31
2022-08-26T01:30:25.980Z,19.30
2022-08-26T01:31:26.082Z,19.29
2022-08-26T01:32:25.953Z,19.28
2022-08-26T01:33:25.947Z,19.26
2022-08-26T01:34:25.948Z,19.23
2022-08-26T01:35:25.909Z,19.21
2022-08-26T01:36:25.928Z,19.19
2022-08-26T01:37:25.869Z,19.17
2022-08-26T01:38:25.880Z,19.15
2022-08-26T01:39:25.846Z,19.14
2022-08-26T01:40:25.867Z,19.12
2022-08-26T01:41:27.502Z,19.10
2022-08-26T01:42:25.858Z,19.08
2022-08-26T01:43:25.810Z,19.06
2022-08-26T01:44:25.803Z,19.04
2022-08-26T01:45:25.852Z,19.02
2022-08-26T01:46:25.774Z,19.00
2022-08-26T01:47:25.783Z,18.98
2022-08-26T01:48:25.750Z,18.97
2022-08-26T01:49:26.048Z,18.97
2022-08-26T01:50:28.106Z,18.97
2022-08-26T01:51:25.790Z,18.97
2022-08-26T01:52:27.631Z,18.97
2022-08-26T01:53:25.647Z,18.97
2022-08-26T01:54:25.671Z,18.97
2022-08-26T01:55:32.884Z,18.98
2022-08-26T01:56:25.640Z,18.98
2022-08-26T01:57:25.672Z,18.99
2022-08-26T01:58:25.636Z,18.98
2022-08-26T01:59:25.604Z,18.97
2022-08-26T02:00:25.594Z,18.95
2022-08-26T02:01:29.211Z,18.93
2022-08-26T02:02:25.563Z,18.92
2022-08-26T02:03:25.584Z,18.91
2022-08-26T02:04:25.561Z,18.91
2022-08-26T02:05:25.489Z,18.89
2022-08-26T02:06:25.477Z,18.89
2022-08-26T02:07:26.779Z,18.88
2022-08-26T02:08:25.531Z,18.88
2022-08-26T02:09:25.457Z,18.87
2022-08-26T02:10:25.447Z,18.85
2022-08-26T02:11:25.424Z,18.84
2022-08-26T02:12:25.419Z,18.81
2022-08-26T02:13:25.394Z,18.80
2022-08-26T02:14:26.860Z,18.79
2022-08-26T02:15:25.386Z,18.78
2022-08-26T02:16:25.407Z,18.78
2022-08-26T02:17:25.374Z,18.76
2022-08-26T02:18:25.332Z,18.75
2022-08-26T02:19:25.321Z,18.75
2022-08-26T02:20:26.534Z,18.73
2022-08-26T02:21:25.300Z,18.71
2022-08-26T02:22:25.269Z,18.68
2022-08-26T02:23:25.275Z,18.65
2022-08-26T02:24:27.233Z,18.62
2022-08-26T02:25:25.232Z,18.59
2022-08-26T02:26:25.250Z,18.56
2022-08-26T02:27:25.202Z,18.54
2022-08-26T02:28:26.614Z,18.51
2022-08-26T02:29:25.193Z,18.49
2022-08-26T02:30:25.156Z,18.49
2022-08-26T02:31:25.194Z,18.48
2022-08-26T02:32:25.149Z,18.48
2022-08-26T02:33:25.157Z,18.49
2022-08-26T02:34:25.112Z,18.49
2022-08-26T02:35:25.100Z,18.51
2022-08-26T02:36:25.084Z,18.54
2022-08-26T02:37:25.067Z,18.57
2022-08-26T02:38:25.081Z,18.59
2022-08-26T02:39:25.061Z,18.61
2022-08-26T02:40:25.141Z,18.63
2022-08-26T02:41:25.058Z,18.65
2022-08-26T02:42:25.046Z,18.66
2022-08-26T02:43:31.766Z,18.68
2022-08-26T02:44:25.002Z,18.70
2022-08-26T02:45:24.969Z,18.72
2022-08-26T02:46:27.840Z,18.73
2022-08-26T02:47:25.005Z,18.75
2022-08-26T02:48:24.943Z,18.76
2022-08-26T02:49:24.924Z,18.77
2022-08-26T02:50:24.907Z,18.78
2022-08-26T02:51:24.903Z,18.79
2022-08-26T02:52:24.931Z,18.80
2022-08-26T02:53:25.516Z,18.81
2022-08-26T02:54:24.862Z,18.81
2022-08-26T02:55:24.901Z,18.80
2022-08-26T02:56:24.828Z,18.80
2022-08-26T02:57:24.814Z,18.78
2022-08-26T02:58:24.819Z,18.77
2022-08-26T02:59:24.795Z,18.74
2022-08-26T03:00:24.831Z,18.72
2022-08-26T03:01:24.890Z,18.71
2022-08-26T03:02:24.829Z,18.70
2022-08-26T03:03:24.717Z,18.69
2022-08-26T03:04:25.923Z,18.68
2022-08-26T03:05:24.716Z,18.67
2022-08-26T03:06:24.706Z,18.66
2022-08-26T03:07:24.702Z,18.64
2022-08-26T03:08:24.673Z,18.61
2022-08-26T03:09:24.640Z,18.58
2022-08-26T03:10:24.629Z,18.55
2022-08-26T03:11:25.137Z,18.53
2022-08-26T03:12:25.603Z,18.50
2022-08-26T03:13:24.650Z,18.48
2022-08-26T03:14:24.605Z,18.46
2022-08-26T03:15:24.563Z,18.45
2022-08-26T03:16:24.619Z,18.43
2022-08-26T03:17:24.574Z,18.41
2022-08-26T03:18:24.582Z,18.38
2022-08-26T03:19:24.543Z,18.34
2022-08-26T03:20:24.502Z,18.31
2022-08-26T03:21:24.515Z,18.28
2022-08-26T03:22:24.485Z,18.26
2022-08-26T03:23:24.497Z,18.26
2022-08-26T03:24:24.490Z,18.27
2022-08-26T03:25:24.419Z,18.28
2022-08-26T03:26:24.447Z,18.29
2022-08-26T03:27:24.416Z,18.30
2022-08-26T03:28:24.433Z,18.31
2022-08-26T03:29:24.395Z,18.32
2022-08-26T03:30:24.407Z,18.33
2022-08-26T03:31:24.724Z,18.32
2022-08-26T03:32:24.344Z,18.32
2022-08-26T03:33:24.351Z,18.31
2022-08-26T03:34:24.299Z,18.30
2022-08-26T03:35:24.281Z,18.30
2022-08-26T03:36:24.295Z,18.29
2022-08-26T03:37:24.266Z,18.27
2022-08-26T03:38:24.254Z,18.27
2022-08-26T03:39:24.227Z,18.26
2022-08-26T03:40:24.307Z,18.26
2022-08-26T03:41:24.210Z,18.26
2022-08-26T03:42:24.206Z,18.26
2022-08-26T03:43:24.225Z,18.27
2022-08-26T03:44:24.164Z,18.29
2022-08-26T03:45:24.196Z,18.30
2022-08-26T03:46:24.201Z,18.32
2022-08-26T03:47:24.121Z,18.35
2022-08-26T03:48:24.122Z,18.37
2022-08-26T03:49:24.159Z,18.39
2022-08-26T03:50:24.334Z,18.41
2022-08-26T03:51:24.322Z,18.41
2022-08-26T03:52:24.064Z,18.41
2022-08-26T03:53:24.060Z,18.41
2022-08-26T03:54:24.127Z,18.40
2022-08-26T03:55:24.051Z,18.38
2022-08-26T03:56:24.051Z,18.37
2022-08-26T03:57:24.027Z,18.36
2022-08-26T03:58:23.980Z,18.35
2022-08-26T03:59:23.978Z,18.34
2022-08-26T04:00:24.004Z,18.33
2022-08-26T04:01:24.043Z,18.31
2022-08-26T04:02:24.019Z,18.29
2022-08-26T04:03:24.006Z,18.27
2022-08-26T04:04:24.550Z,18.24
2022-08-26T04:05:23.881Z,18.23
2022-08-26T04:06:23.913Z,18.22
2022-08-26T04:07:23.855Z,18.20
2022-08-26T04:08:23.877Z,18.18
2022-08-26T04:09:23.828Z,18.15
2022-08-26T04:10:28.648Z,18.12
2022-08-26T04:11:23.823Z,18.10
2022-08-26T04:12:23.840Z,18.08
2022-08-26T04:13:23.832Z,18.06
2022-08-26T04:14:23.815Z,18.06
2022-08-26T04:15:23.742Z,18.07
2022-08-26T04:16:23.839Z,18.08
2022-08-26T04:17:25.084Z,18.08
2022-08-26T04:18:23.720Z,18.09
2022-08-26T04:19:23.726Z,18.10
2022-08-26T04:20:23.861Z,18.13
2022-08-26T04:21:23.703Z,18.16
2022-08-26T04:22:24.235Z,18.18
2022-08-26T04:23:23.650Z,18.20
2022-08-26T04:24:23.851Z,18.23
2022-08-26T04:25:24.161Z,18.25
2022-08-26T04:26:23.637Z,18.27
2022-08-26T04:27:23.612Z,18.30
2022-08-26T04:28:23.577Z,18.33
2022-08-26T04:29:23.590Z,18.36
2022-08-26T04:30:23.543Z,18.40
2022-08-26T04:31:23.617Z,18.43
2022-08-26T04:32:23.548Z,18.46
2022-08-26T04:33:32.227Z,18.50
2022-08-26T04:34:23.523Z,18.54
2022-08-26T04:35:26.015Z,18.60
2022-08-26T04:36:23.491Z,18.66
2022-08-26T04:37:23.455Z,18.73
2022-08-26T04:38:23.447Z,18.78
2022-08-26T04:39:23.458Z,18.83
2022-08-26T04:40:23.496Z,18.86
2022-08-26T04:41:23.410Z,18.89
2022-08-26T04:42:26.052Z,18.92
2022-08-26T04:43:23.396Z,18.95
2022-08-26T04:44:23.368Z,18.98
2022-08-26T04:45:23.358Z,19.01
2022-08-26T04:46:23.391Z,19.04
2022-08-26T04:47:23.320Z,19.06
2022-08-26T04:48:23.307Z,19.07
2022-08-26T04:49:23.299Z,19.09
2022-08-26T04:50:23.301Z,19.11
2022-08-26T04:51:23.272Z,19.12
2022-08-26T04:52:23.249Z,19.14
2022-08-26T04:53:23.248Z,19.15
2022-08-26T04:54:23.232Z,19.15
2022-08-26T04:55:25.230Z,19.15
2022-08-26T04:56:23.235Z,19.16
2022-08-26T04:57:23.202Z,19.17
2022-08-26T04:58:23.179Z,19.18
2022-08-26T04:59:23.149Z,19.18
2022-08-26T05:00:23.148Z,19.19
2022-08-26T05:01:23.873Z,19.20
2022-08-26T05:02:23.145Z,19.21
2022-08-26T05:03:23.101Z,19.22
2022-08-26T05:04:23.148Z,19.23
2022-08-26T05:05:23.088Z,19.25
2022-08-26T05:06:23.100Z,19.26
2022-08-26T05:07:23.065Z,19.28
2022-08-26T05:08:23.039Z,19.29
2022-08-26T05:09:23.049Z,19.31
2022-08-26T05:10:23.011Z,19.32
2022-08-26T05:11:23.024Z,19.34
2022-08-26T05:12:23.016Z,19.35
2022-08-26T05:13:22.978Z,19.36
2022-08-26T05:14:22.979Z,19.38
2022-08-26T05:15:22.984Z,19.40
2022-08-26T05:16:22.995Z,19.42
2022-08-26T05:17:22.946Z,19.43
2022-08-26T05:18:22.946Z,19.45
2022-08-26T05:19:22.882Z,19.46
2022-08-26T05:20:26.174Z,19.47
2022-08-26T05:21:22.857Z,19.49
2022-08-26T05:22:22.859Z,19.51
2022-08-26T05:23:23.014Z,19.53
2022-08-26T05:24:22.857Z,19.55
2022-08-26T05:25:22.820Z,19.57
2022-08-26T05:26:23.192Z,19.59
2022-08-26T05:27:22.807Z,19.62
2022-08-26T05:28:22.784Z,19.65
2022-08-26T05:29:22.748Z,19.68
2022-08-26T05:30:22.757Z,19.71
2022-08-26T05:31:22.796Z,19.74
2022-08-26T05:32:22.734Z,19.77
2022-08-26T05:33:22.700Z,19.80
2022-08-26T05:34:22.715Z,19.83
2022-08-26T05:35:22.695Z,19.86
2022-08-26T05:36:22.675Z,19.89
2022-08-26T05:37:22.669Z,19.91
2022-08-26T05:38:22.630Z,19.94
2022-08-26T05:39:22.631Z,19.96
2022-08-26T05:40:22.739Z,19.98
2022-08-26T05:41:22.609Z,20.00
2022-08-26T05:42:22.612Z,20.02
2022-08-26T05:43:22.586Z,20.05
2022-08-26T05:44:22.591Z,20.07
2022-08-26T05:45:22.578Z,20.08
2022-08-26T05:46:22.578Z,20.10
2022-08-26T05:47:22.518Z,20.10
2022-08-26T05:48:22.625Z,20.11
2022-08-26T05:49:22.605Z,20.12
2022-08-26T05:50:22.879Z,20.14
2022-08-26T05:51:25.842Z,20.15
2022-08-26T05:52:24.694Z,20.17
2022-08-26T05:53:22.436Z,20.18
2022-08-26T05:54:22.582Z,20.20
2022-08-26T05:55:22.433Z,20.21
2022-08-26T05:56:22.424Z,20.23
2022-08-26T05:57:23.160Z,20.24
2022-08-26T05:58:22.380Z,20.25
2022-08-26T05:59:24.474Z,20.25
2022-08-26T06:00:22.353Z,20.26
2022-08-26T06:01:22.414Z,20.26
2022-08-26T06:02:22.375Z,20.26
2022-08-26T06:03:22.330Z,20.27
2022-08-26T06:04:22.307Z,20.27
2022-08-26T06:05:22.273Z,20.27
2022-08-26T06:06:27.363Z,20.28
2022-08-26T06:07:22.304Z,20.28
2022-08-26T06:08:22.251Z,20.28
2022-08-26T06:09:22.252Z,20.29
2022-08-26T06:10:32.217Z,20.29
2022-08-26T06:11:22.230Z,20.30
2022-08-26T06:12:22.224Z,20.30
2022-08-26T06:13:22.229Z,20.30
2022-08-26T06:14:22.225Z,20.30
2022-08-26T06:15:22.194Z,20.31
2022-08-26T06:16:22.245Z,20.33
2022-08-26T06:17:22.155Z,20.36
2022-08-26T06:18:22.120Z,20.39
2022-08-26T06:19:22.190Z,20.45
2022-08-26T06:20:22.092Z,20.51
2022-08-26T06:21:22.081Z,20.59
2022-08-26T06:22:23.738Z,20.67
2022-08-26T06:23:22.058Z,20.76
2022-08-26T06:24:22.023Z,20.85
2022-08-26T06:25:22.042Z,20.94
2022-08-26T06:26:22.008Z,21.05
2022-08-26T06:27:22.011Z,21.15
2022-08-26T06:28:21.967Z,21.25
2022-08-26T06:29:24.798Z,21.34
2022-08-26T06:30:21.973Z,21.45
2022-08-26T06:31:22.017Z,21.56
2022-08-26T06:32:21.986Z,21.68
2022-08-26T06:33:21.908Z,21.80
2022-08-26T06:34:21.889Z,21.93
2022-08-26T06:35:21.898Z,22.07
2022-08-26T06:36:21.921Z,22.21
2022-08-26T06:37:21.878Z,22.34
2022-08-26T06:38:21.847Z,22.46
2022-08-26T06:39:21.838Z,22.56
2022-08-26T06:40:21.852Z,22.66
2022-08-26T06:41:21.819Z,22.74
2022-08-26T06:42:21.816Z,22.82
2022-08-26T06:43:21.789Z,22.88
2022-08-26T06:44:21.789Z,22.94
2022-08-26T06:45:21.785Z,22.99
2022-08-26T06:46:21.821Z,23.01
2022-08-26T06:47:21.760Z,23.00
2022-08-26T06:48:21.718Z,22.98
2022-08-26T06:49:26.593Z,22.97
2022-08-26T06:50:21.703Z,22.94
2022-08-26T06:51:22.302Z,22.92
2022-08-26T06:52:24.358Z,22.92
2022-08-26T06:53:21.658Z,22.94
2022-08-26T06:54:21.639Z,23.00
2022-08-26T06:55:21.621Z,23.07
2022-08-26T06:56:21.606Z,23.14
2022-08-26T06:57:21.662Z,23.20
2022-08-26T06:58:21.588Z,23.27
2022-08-26T06:59:21.587Z,23.35
2022-08-26T07:00:21.553Z,23.43
2022-08-26T07:01:21.565Z,23.48
2022-08-26T07:02:21.585Z,23.51
2022-08-26T07:03:21.541Z,23.52
2022-08-26T07:04:22.423Z,23.55
2022-08-26T07:05:21.547Z,23.60
2022-08-26T07:06:21.463Z,23.68
2022-08-26T07:07:21.994Z,23.75
2022-08-26T07:08:21.450Z,23.80
2022-08-26T07:09:21.509Z,23.83
2022-08-26T07:10:21.407Z,23.83
2022-08-26T07:11:21.428Z,23.82
2022-08-26T07:12:21.408Z,23.78
2022-08-26T07:13:30.580Z,23.71
2022-08-26T07:14:21.985Z,23.68
2022-08-26T07:15:27.116Z,23.68
2022-08-26T07:16:21.368Z,23.70
2022-08-26T07:17:21.320Z,23.72
2022-08-26T07:18:22.953Z,23.75
2022-08-26T07:19:30.104Z,23.75
2022-08-26T07:20:21.317Z,23.74
2022-08-26T07:21:21.315Z,23.75
2022-08-26T07:22:21.280Z,23.79
2022-08-26T07:23:21.279Z,23.83
2022-08-26T07:24:21.268Z,23.88
2022-08-26T07:25:21.210Z,23.94
2022-08-26T07:26:21.203Z,24.01
2022-08-26T07:27:21.207Z,24.07
2022-08-26T07:28:21.187Z,24.09
2022-08-26T07:29:21.180Z,24.06
2022-08-26T07:30:21.153Z,24.03
2022-08-26T07:31:21.290Z,24.04
2022-08-26T07:32:22.834Z,24.09
2022-08-26T07:33:21.122Z,24.16
2022-08-26T07:34:21.090Z,24.25
2022-08-26T07:35:21.109Z,24.34
2022-08-26T07:36:21.081Z,24.41
2022-08-26T07:37:21.096Z,24.49
2022-08-26T07:38:21.067Z,24.60
2022-08-26T07:39:21.087Z,24.74
2022-08-26T07:40:21.094Z,24.85
2022-08-26T07:41:21.037Z,24.89
2022-08-26T07:42:21.106Z,24.93
2022-08-26T07:43:20.998Z,25.02
2022-08-26T07:44:20.992Z,25.13
2022-08-26T07:45:20.973Z,25.26
2022-08-26T07:46:27.538Z,25.36
2022-08-26T07:47:26.136Z,25.42
2022-08-26T07:48:21.451Z,25.49
2022-08-26T07:49:21.065Z,25.56
2022-08-26T07:50:20.912Z,25.63
2022-08-26T07:51:20.875Z,25.73
2022-08-26T07:52:25.914Z,25.84
2022-08-26T07:53:20.873Z,25.93
2022-08-26T07:54:20.832Z,26.02
2022-08-26T07:55:20.821Z,26.03
2022-08-26T07:56:20.822Z,26.03
2022-08-26T07:57:20.819Z,26.04
2022-08-26T07:58:20.775Z,26.00
2022-08-26T07:59:20.797Z,25.89
2022-08-26T08:00:20.825Z,25.84
2022-08-26T08:01:20.850Z,25.88
2022-08-26T08:02:20.789Z,25.96
2022-08-26T08:03:20.779Z,26.03
2022-08-26T08:04:26.244Z,26.07
2022-08-26T08:05:20.695Z,26.10
2022-08-26T08:06:20.693Z,26.19
2022-08-26T08:07:20.692Z,26.34
2022-08-26T08:08:26.648Z,26.51
2022-08-26T08:09:20.684Z,26.64
2022-08-26T08:10:20.823Z,26.73
2022-08-26T08:11:20.621Z,26.77
2022-08-26T08:12:20.664Z,26.81
2022-08-26T08:13:20.586Z,26.91
2022-08-26T08:14:22.134Z,27.05
2022-08-26T08:15:20.624Z,27.09
2022-08-26T08:16:20.634Z,27.06
2022-08-26T08:17:20.570Z,27.05
2022-08-26T08:18:20.755Z,27.11
2022-08-26T08:19:20.513Z,27.24
2022-08-26T08:20:20.532Z,27.36
2022-08-26T08:21:21.610Z,27.37
2022-08-26T08:22:20.499Z,27.32
2022-08-26T08:23:20.487Z,27.31
2022-08-26T08:24:20.456Z,27.35
2022-08-26T08:25:20.457Z,27.43
2022-08-26T08:26:20.430Z,27.50
2022-08-26T08:27:23.859Z,27.62
2022-08-26T08:28:20.417Z,27.75
2022-08-26T08:29:20.401Z,27.81
2022-08-26T08:30:22.721Z,27.82
2022-08-26T08:31:33.250Z,27.81
2022-08-26T08:32:20.339Z,27.76
2022-08-26T08:33:20.340Z,27.69
2022-08-26T08:34:21.594Z,27.67
2022-08-26T08:35:20.317Z,27.71
2022-08-26T08:36:20.463Z,27.80
2022-08-26T08:37:20.273Z,27.86
2022-08-26T08:38:20.268Z,27.89
2022-08-26T08:39:20.284Z,27.92
2022-08-26T08:40:20.435Z,27.91
2022-08-26T08:41:20.254Z,27.89
2022-08-26T08:42:20.225Z,27.96
2022-08-26T08:43:20.228Z,28.08
2022-08-26T08:44:20.241Z,28.12
2022-08-26T08:45:20.183Z,28.07
2022-08-26T08:46:20.202Z,27.98
2022-08-26T08:47:20.146Z,27.90
2022-08-26T08:48:20.153Z,27.90
2022-08-26T08:49:20.154Z,27.92
2022-08-26T08:50:20.124Z,27.95
2022-08-26T08:51:20.094Z,27.97
2022-08-26T08:52:20.089Z,27.97
2022-08-26T08:53:20.088Z,27.96
2022-08-26T08:54:20.070Z,27.94
2022-08-26T08:55:20.039Z,27.93
2022-08-26T08:56:20.044Z,27.98
2022-08-26T08:57:20.045Z,28.11
2022-08-26T08:58:20.010Z,28.27
2022-08-26T08:59:20.008Z,28.41
2022-08-26T09:00:19.994Z,28.46
2022-08-26T09:01:20.018Z,28.40
2022-08-26T09:02:20.002Z,28.42
2022-08-26T09:03:19.961Z,28.56
2022-08-26T09:04:19.967Z,28.66
2022-08-26T09:05:19.936Z,28.70
2022-08-26T09:06:19.893Z,28.68
2022-08-26T09:07:19.886Z,28.63
2022-08-26T09:08:20.066Z,28.60
2022-08-26T09:09:19.888Z,28.64
2022-08-26T09:10:19.865Z,28.62
2022-08-26T09:11:19.854Z,28.52
2022-08-26T09:12:19.822Z,28.44
2022-08-26T09:13:26.104Z,28.44
2022-08-26T09:14:19.837Z,28.49
2022-08-26T09:15:19.782Z,28.57
2022-08-26T09:16:20.427Z,28.67
2022-08-26T09:17:19.788Z,28.81
2022-08-26T09:18:19.743Z,28.87
2022-08-26T09:19:19.784Z,28.83
2022-08-26T09:20:19.768Z,28.81
2022-08-26T09:21:19.751Z,28.85
2022-08-26T09:22:19.738Z,28.92
2022-08-26T09:23:19.704Z,29.03
2022-08-26T09:24:19.684Z,29.17
2022-08-26T09:25:19.692Z,29.30
2022-08-26T09:26:19.703Z,29.48
2022-08-26T09:27:19.649Z,29.70
2022-08-26T09:28:19.653Z,29.87
2022-08-26T09:30:19.613Z,29.78
2022-08-26T09:31:19.694Z,29.53
2022-08-26T09:32:19.570Z,29.37
2022-08-26T09:33:19.641Z,29.30
2022-08-26T09:34:19.586Z,29.23
2022-08-26T09:35:19.562Z,29.05
2022-08-26T09:36:19.549Z,28.90
2022-08-26T09:37:19.515Z,28.89
2022-08-26T09:38:19.514Z,28.93
2022-08-26T09:39:19.518Z,29.00
2022-08-26T09:40:19.542Z,29.12
2022-08-26T09:41:19.468Z,29.26
2022-08-26T09:42:19.430Z,29.36
2022-08-26T09:43:22.305Z,29.42
2022-08-26T09:44:19.405Z,29.43
2022-08-26T09:45:19.440Z,29.37
2022-08-26T09:46:19.523Z,29.22
2022-08-26T09:47:19.403Z,29.08
2022-08-26T09:48:19.371Z,28.99
2022-08-26T09:49:19.352Z,28.94
2022-08-26T09:50:19.348Z,28.94
2022-08-26T09:51:19.318Z,29.02
2022-08-26T09:52:19.315Z,29.08
2022-08-26T09:53:20.942Z,29.01
2022-08-26T09:54:20.724Z,28.94
2022-08-26T09:55:19.620Z,28.97
2022-08-26T09:56:19.264Z,29.04
2022-08-26T09:57:19.247Z,29.13
2022-08-26T09:58:19.251Z,29.25
2022-08-26T09:59:19.224Z,29.38
2022-08-26T10:00:19.213Z,29.54
2022-08-26T10:01:19.552Z,29.69
2022-08-26T10:02:19.222Z,29.67
2022-08-26T10:03:19.182Z,29.59
2022-08-26T10:04:19.208Z,29.61
2022-08-26T10:05:19.159Z,29.73
2022-08-26T10:06:21.003Z,29.91
2022-08-26T10:07:19.133Z,29.98
2022-08-26T10:08:19.116Z,29.94
2022-08-26T10:09:19.129Z,29.83
2022-08-26T10:10:19.102Z,29.76
2022-08-26T10:11:19.058Z,29.76
2022-08-26T10:12:19.121Z,29.76
2022-08-26T10:13:19.060Z,29.75
2022-08-26T10:14:19.033Z,29.71
2022-08-26T10:15:19.079Z,29.63
2022-08-26T10:16:19.085Z,29.55
2022-08-26T10:17:18.989Z,29.49
2022-08-26T10:18:19.022Z,29.41
2022-08-26T10:19:18.997Z,29.37
2022-08-26T10:20:23.119Z,29.46
2022-08-26T10:21:18.957Z,29.69
2022-08-26T10:22:18.951Z,30.09
2022-08-26T10:23:18.928Z,30.59
2022-08-26T10:24:18.911Z,30.98
2022-08-26T10:25:18.886Z,31.27
2022-08-26T10:26:18.897Z,31.49
2022-08-26T10:27:18.884Z,31.71
2022-08-26T10:28:18.929Z,31.99
2022-08-26T10:29:18.884Z,32.28
2022-08-26T10:30:18.871Z,32.51
2022-08-26T10:31:19.830Z,32.73
2022-08-26T10:32:18.874Z,32.88
2022-08-26T10:33:18.792Z,32.82
2022-08-26T10:34:18.784Z,32.71
2022-08-26T10:35:18.802Z,32.61
2022-08-26T10:36:20.313Z,32.43
2022-08-26T10:37:18.748Z,32.25
2022-08-26T10:38:18.744Z,31.93
2022-08-26T10:39:18.725Z,31.47
2022-08-26T10:40:18.805Z,31.11
2022-08-26T10:41:18.741Z,31.02
2022-08-26T10:42:18.701Z,31.14
2022-08-26T10:43:18.691Z,31.34
2022-08-26T10:44:18.684Z,31.54
2022-08-26T10:45:18.685Z,31.68
2022-08-26T10:46:18.688Z,31.74
2022-08-26T10:47:18.656Z,31.65
2022-08-26T10:48:18.638Z,31.41
2022-08-26T10:49:18.604Z,31.09
2022-08-26T10:50:18.944Z,30.72
2022-08-26T10:51:18.602Z,30.37
2022-08-26T10:52:18.569Z,30.11
2022-08-26T10:53:18.579Z,29.94
2022-08-26T10:54:18.570Z,29.77
2022-08-26T10:55:18.558Z,29.53
2022-08-26T10:56:19.117Z,29.28
2022-08-26T10:57:18.523Z,29.07
2022-08-26T10:58:26.227Z,28.92
2022-08-26T10:59:18.499Z,28.81
2022-08-26T11:00:18.470Z,28.70
2022-08-26T11:01:22.926Z,28.58
2022-08-26T11:02:22.750Z,28.50
2022-08-26T11:03:22.428Z,28.45
2022-08-26T11:04:18.496Z,28.39
2022-08-26T11:05:18.400Z,28.32
2022-08-26T11:06:18.428Z,28.24
2022-08-26T11:07:18.453Z,28.17
2022-08-26T11:08:18.388Z,28.11
2022-08-26T11:09:18.359Z,28.05
2022-08-26T11:10:18.404Z,27.98
2022-08-26T11:11:18.360Z,27.92
2022-08-26T11:12:18.371Z,27.88
2022-08-26T11:13:18.336Z,27.85
2022-08-26T11:14:18.352Z,27.82
2022-08-26T11:15:18.304Z,27.78
2022-08-26T11:16:18.359Z,27.75
2022-08-26T11:17:18.307Z,27.75
2022-08-26T11:18:18.289Z,27.76
2022-08-26T11:19:18.241Z,27.78
2022-08-26T11:20:18.286Z,27.77
2022-08-26T11:21:18.215Z,27.68
2022-08-26T11:22:18.195Z,27.53
2022-08-26T11:23:18.177Z,27.34
2022-08-26T11:24:18.185Z,27.16
2022-08-26T11:25:18.400Z,26.97
2022-08-26T11:26:35.403Z,26.75
2022-08-26T11:27:18.142Z,26.49
2022-08-26T11:28:18.126Z,26.15
2022-08-26T11:29:18.121Z,25.77
2022-08-26T11:30:18.516Z,25.37
2022-08-26T11:31:18.116Z,24.98
2022-08-26T11:32:18.055Z,24.62
2022-08-26T11:33:18.080Z,24.32
2022-08-26T11:34:18.026Z,24.10
2022-08-26T11:35:18.028Z,23.92
2022-08-26T11:36:18.019Z,23.70
2022-08-26T11:37:17.979Z,23.45
2022-08-26T11:38:17.975Z,23.20
2022-08-26T11:39:17.958Z,22.93
2022-08-26T11:40:18.006Z,22.53
2022-08-26T11:41:17.957Z,22.03
2022-08-26T11:42:20.313Z,21.54
2022-08-26T11:43:17.902Z,21.09
2022-08-26T11:44:17.912Z,20.77
2022-08-26T11:45:17.896Z,20.48
2022-08-26T11:46:17.950Z,20.19
2022-08-26T11:47:17.874Z,19.90
2022-08-26T11:48:17.842Z,19.64
2022-08-26T11:49:17.895Z,19.45
2022-08-26T11:50:17.869Z,19.30
2022-08-26T11:51:17.804Z,19.24
2022-08-26T11:52:17.807Z,19.36
2022-08-26T11:53:17.776Z,19.44
2022-08-26T11:54:17.763Z,19.39
2022-08-26T11:55:17.763Z,19.30
2022-08-26T11:56:17.748Z,19.18
2022-08-26T11:57:17.736Z,19.02
2022-08-26T11:58:17.722Z,18.87
2022-08-26T11:59:17.698Z,18.76
2022-08-26T12:00:22.549Z,18.67
2022-08-26T12:01:17.688Z,18.62
2022-08-26T12:02:17.774Z,18.61
2022-08-26T12:03:17.688Z,18.63
2022-08-26T12:04:17.709Z,18.68
2022-08-26T12:05:17.603Z,18.72
2022-08-26T12:06:17.690Z,18.73
2022-08-26T12:07:18.580Z,18.71
2022-08-26T12:08:17.590Z,18.69
2022-08-26T12:09:17.556Z,18.69
2022-08-26T12:10:17.603Z,18.76
2022-08-26T12:11:17.542Z,18.84
2022-08-26T12:12:17.564Z,18.91
2022-08-26T12:13:17.547Z,18.97
2022-08-26T12:14:17.508Z,19.08
2022-08-26T12:15:17.492Z,19.27
2022-08-26T12:16:17.540Z,19.44
2022-08-26T12:17:17.474Z,19.55
2022-08-26T12:18:17.461Z,19.59
2022-08-26T12:19:17.438Z,19.55
2022-08-26T12:20:17.439Z,19.50
2022-08-26T12:21:17.435Z,19.44
2022-08-26T12:22:17.390Z,19.36
2022-08-26T12:23:17.404Z,19.20
2022-08-26T12:24:17.381Z,19.03
2022-08-26T12:31:18.097Z,19.42
2022-08-26T12:32:18.947Z,19.00
2022-08-26T12:33:22.686Z,18.76
2022-08-26T12:34:18.982Z,18.65
2022-08-26T12:35:18.926Z,18.64
2022-08-26T12:36:18.918Z,18.69
2022-08-26T12:37:19.091Z,18.75
2022-08-26T12:38:18.867Z,18.76
2022-08-26T12:39:18.869Z,18.71
2022-08-26T12:40:18.887Z,18.64
2022-08-26T12:41:18.857Z,18.56
2022-08-26T12:42:18.841Z,18.48
2022-08-26T12:43:18.813Z,18.41
2022-08-26T12:44:18.817Z,18.38
2022-08-26T12:45:18.780Z,18.38
2022-08-26T12:46:18.779Z,18.37
2022-08-26T12:47:25.792Z,18.37
2022-08-26T12:48:18.754Z,18.38
2022-08-26T12:49:18.733Z,18.41
2022-08-26T12:50:18.763Z,18.47
2022-08-26T12:51:18.742Z,18.53
2022-08-26T12:52:18.685Z,18.58
2022-08-26T12:53:18.710Z,18.62
2022-08-26T12:54:18.676Z,18.65
2022-08-26T12:55:18.687Z,18.67
2022-08-26T12:56:18.661Z,18.70
2022-08-26T12:57:18.619Z,18.73
2022-08-26T12:58:18.623Z,18.77
2022-08-26T12:59:18.613Z,18.80